Time;durP1;ratioP1;P1;durP2;ratioP2;P2;SDS_P1;SDS_P2;PMS_P1;PMS_P2;Temp;Humidity;BMP_temperature;BMP_pressure;BME280_temperature;BME280_humidity;BME280_pressure;Samples;Min_cycle;Max_cycle;Signal;HPM_P1;HPM_P2
2023/08/06 00:00:04;;;;;;;7.03;4.30;;;15.00;99.90;;;;;;4958221;28;20915;-58
2023/08/06 00:02:31;;;;;;;5.90;5.10;;;15.00;99.90;;;;;;4957679;28;20466;-58
2023/08/06 00:04:58;;;;;;;5.67;4.70;;;15.00;1.00;;;;;;4957377;28;20473;-58
2023/08/06 00:07:26;;;;;;;6.03;4.13;;;15.00;99.90;;;;;;4957896;28;20503;-58
2023/08/06 00:09:53;;;;;;;5.80;4.77;;;15.10;1.00;;;;;;4958227;28;20842;-58
2023/08/06 00:12:20;;;;;;;4.73;4.30;;;15.00;1.00;;;;;;4958477;28;20495;-58
2023/08/06 00:14:51;;;;;;;5.10;4.50;;;15.10;99.90;;;;;;4958272;28;20444;-57
2023/08/06 00:17:18;;;;;;;5.33;4.83;;;15.10;1.00;;;;;;4958852;28;20821;-59
2023/08/06 00:19:46;;;;;;;6.20;5.40;;;15.10;1.00;;;;;;4957899;28;20458;-57
2023/08/06 00:22:13;;;;;;;8.33;4.60;;;15.20;1.00;;;;;;4958578;28;20470;-57
2023/08/06 00:24:40;;;;;;;5.00;4.17;;;15.10;1.00;;;;;;4958873;28;20919;-58
2023/08/06 00:27:08;;;;;;;8.10;4.83;;;15.10;99.90;;;;;;4958652;28;20483;-58
2023/08/06 00:29:35;;;;;;;5.20;4.43;;;15.20;1.00;;;;;;4958709;28;20466;-58
2023/08/06 00:32:04;;;;;;;8.13;4.77;;;15.20;99.90;;;;;;4959896;28;20876;-58
2023/08/06 00:34:31;;;;;;;5.87;5.17;;;15.10;1.00;;;;;;4962190;28;20756;-58
2023/08/06 00:36:58;;;;;;;6.03;5.43;;;15.20;99.90;;;;;;4962229;28;20458;-58
2023/08/06 00:39:25;;;;;;;5.80;5.17;;;15.20;42.00;;;;;;4962307;28;20566;-57
2023/08/06 00:41:52;;;;;;;4.93;4.53;;;15.10;1.00;;;;;;4962227;28;20489;-57
2023/08/06 00:44:20;;;;;;;5.60;4.83;;;15.20;1.00;;;;;;4961897;28;20469;-58
2023/08/06 00:46:47;;;;;;;6.70;4.47;;;15.10;99.90;;;;;;4962034;28;20458;-58
2023/08/06 00:49:16;;;;;;;5.80;4.50;;;15.10;99.90;;;;;;4961373;28;20912;-58
2023/08/06 00:51:44;;;;;;;5.33;4.80;;;15.10;1.00;;;;;;4977476;28;20532;-58
2023/08/06 00:54:11;;;;;;;5.70;4.43;;;15.00;1.00;;;;;;4980791;28;20497;-58
2023/08/06 00:56:39;;;;;;;5.93;4.70;;;15.00;1.00;;;;;;4980960;28;20468;-58
2023/08/06 00:59:06;;;;;;;5.13;4.60;;;15.10;99.90;;;;;;4981193;28;20467;-58
2023/08/06 01:01:34;;;;;;;6.37;5.10;;;15.10;99.90;;;;;;4980649;28;20462;-58
2023/08/06 01:04:01;;;;;;;6.23;5.50;;;15.00;99.90;;;;;;4980879;28;20557;-57
2023/08/06 01:06:40;;;;;;;7.37;4.60;;;14.90;99.90;;;;;;4980861;28;20548;-58
2023/08/06 01:09:17;;;;;;;7.70;5.30;;;14.90;99.90;;;;;;4981100;28;20465;-58
2023/08/06 01:11:51;;;;;;;5.60;5.00;;;14.90;1.00;;;;;;4980762;28;20928;-57
2023/08/06 01:14:26;;;;;;;7.60;4.90;;;14.80;1.00;;;;;;4980687;28;20501;-57
2023/08/06 01:16:54;;;;;;;5.73;5.13;;;14.90;1.00;;;;;;4980722;28;20556;-57
2023/08/06 01:19:22;;;;;;;8.77;6.60;;;14.90;1.00;;;;;;4980501;28;20536;-57
2023/08/06 01:21:51;;;;;;;5.87;5.30;;;14.90;1.00;;;;;;4980233;28;20501;-55
2023/08/06 01:24:18;;;;;;;5.50;5.00;;;14.90;1.00;;;;;;4980450;28;20531;-58
2023/08/06 01:26:52;;;;;;;5.47;4.50;;;14.90;99.90;;;;;;4980581;28;20755;-57
2023/08/06 01:29:25;;;;;;;6.57;5.03;;;14.90;99.90;;;;;;4980557;28;20531;-54
2023/08/06 01:31:56;;;;;;;6.70;5.70;;;14.90;99.90;;;;;;4980028;28;20568;-57
2023/08/06 01:34:26;;;;;;;5.77;5.20;;;14.90;1.00;;;;;;4980448;28;20501;-57
2023/08/06 01:36:55;;;;;;;7.40;5.23;;;14.90;1.00;;;;;;4980545;28;20466;-58
2023/08/06 01:39:22;;;;;;;6.17;5.57;;;14.90;99.90;;;;;;4980547;28;20565;-57
2023/08/06 01:41:49;;;;;;;9.33;5.40;;;14.90;1.00;;;;;;4980549;28;20457;-57
2023/08/06 01:44:17;;;;;;;6.10;4.97;;;14.90;1.00;;;;;;4979331;28;20869;-57
2023/08/06 01:46:44;;;;;;;7.50;5.90;;;14.90;1.00;;;;;;4980195;28;20560;-58
2023/08/06 01:49:11;;;;;;;5.87;4.97;;;14.90;83.80;;;;;;4980449;28;20458;-58
2023/08/06 01:51:38;;;;;;;4.70;4.30;;;14.90;1.00;;;;;;4964208;28;20487;-58
2023/08/06 01:54:07;;;;;;;6.23;5.60;;;14.90;1.00;;;;;;4960337;28;20499;-58
2023/08/06 01:56:34;;;;;;;8.23;5.57;;;15.00;1.00;;;;;;4960964;28;20459;-57
2023/08/06 01:59:01;;;;;;;8.10;5.60;;;15.00;1.00;;;;;;4961122;28;20463;-58
2023/08/06 02:01:28;;;;;;;5.23;4.73;;;15.00;1.00;;;;;;4960286;28;20459;-58
2023/08/06 02:03:55;;;;;;;10.53;5.00;;;15.00;99.90;;;;;;4960913;28;20459;-58
2023/08/06 02:06:23;;;;;;;8.37;5.40;;;15.00;1.00;;;;;;4960454;28;20445;-58
2023/08/06 02:08:50;;;;;;;6.30;5.30;;;15.00;1.00;;;;;;4960668;28;20465;-58
2023/08/06 02:11:18;;;;;;;6.00;4.60;;;15.00;1.00;;;;;;4960460;28;20521;-57
2023/08/06 02:13:47;;;;;;;6.00;4.73;;;15.00;1.00;;;;;;4960461;28;20498;-58
2023/08/06 02:16:14;;;;;;;6.83;5.10;;;15.00;1.00;;;;;;4960336;28;20554;-57
2023/08/06 02:18:41;;;;;;;6.50;4.90;;;15.00;99.90;;;;;;4960707;28;20437;-58
2023/08/06 02:21:08;;;;;;;8.80;6.00;;;15.00;99.90;;;;;;4959266;28;20502;-58
2023/08/06 02:23:35;;;;;;;5.30;4.80;;;15.00;99.90;;;;;;4960083;28;20557;-58
2023/08/06 02:26:04;;;;;;;5.80;5.20;;;15.00;99.90;;;;;;4959852;28;20473;-58
2023/08/06 02:28:33;;;;;;;5.30;4.80;;;15.00;99.90;;;;;;4960064;28;20968;-58
2023/08/06 02:31:01;;;;;;;6.47;4.90;;;15.00;99.90;;;;;;4960577;28;20471;-58
2023/08/06 02:33:28;;;;;;;5.67;5.10;;;15.00;99.90;;;;;;4960413;28;20856;-58
2023/08/06 02:36:01;;;;;;;5.30;4.80;;;15.00;99.90;;;;;;4959938;28;20565;-58
2023/08/06 02:38:28;;;;;;;4.60;4.10;;;15.00;1.00;;;;;;4959777;28;20473;-58
2023/08/06 02:40:55;;;;;;;7.37;5.10;;;15.00;99.90;;;;;;4959231;28;20469;-57
2023/08/06 02:43:23;;;;;;;5.10;4.63;;;14.90;99.90;;;;;;4959846;28;20466;-58
2023/08/06 02:45:51;;;;;;;6.93;4.43;;;14.90;99.90;;;;;;4959872;28;20437;-58
2023/08/06 02:48:19;;;;;;;6.30;4.90;;;15.00;1.00;;;;;;4959677;28;20749;-58
2023/08/06 02:50:46;;;;;;;10.50;4.90;;;15.00;1.00;;;;;;4968061;28;20771;-58
2023/08/06 02:53:13;;;;;;;5.33;4.83;;;15.00;99.90;;;;;;4978814;28;20512;-58
2023/08/06 02:55:47;;;;;;;5.73;5.13;;;15.00;99.90;;;;;;4978873;28;20563;-58
2023/08/06 02:58:15;;;;;;;5.60;4.43;;;15.00;9.10;;;;;;4979186;28;20461;-58
2023/08/06 03:00:42;;;;;;;5.53;5.03;;;15.00;1.00;;;;;;4979228;28;20448;-58
2023/08/06 03:03:11;;;;;;;6.37;5.30;;;15.00;1.00;;;;;;4978524;28;20497;-58
2023/08/06 03:05:38;;;;;;;7.20;4.07;;;15.00;1.00;;;;;;4978157;28;20461;-58
2023/08/06 03:08:06;;;;;;;7.50;5.23;;;15.00;1.00;;;;;;4978606;28;20462;-58
2023/08/06 03:10:33;;;;;;;5.67;4.40;;;15.00;1.00;;;;;;4978707;28;20469;-57
2023/08/06 03:13:00;;;;;;;6.63;4.80;;;15.00;1.00;;;;;;4978736;28;20946;-58
2023/08/06 03:15:27;;;;;;;5.00;4.00;;;14.90;1.00;;;;;;4978736;28;20489;-58
2023/08/06 03:17:57;;;;;;;5.93;4.57;;;14.90;1.00;;;;;;4978491;28;20462;-58
2023/08/06 03:20:26;;;;;;;6.07;5.10;;;14.90;1.00;;;;;;4978912;28;20516;-58
2023/08/06 03:22:53;;;;;;;5.27;4.77;;;14.90;1.00;;;;;;4977922;28;20548;-58
2023/08/06 03:25:20;;;;;;;6.93;5.17;;;14.90;1.00;;;;;;4978621;28;20739;-58
2023/08/06 03:27:47;;;;;;;7.03;4.70;;;14.90;1.00;;;;;;4978337;28;20468;-58
2023/08/06 03:30:15;;;;;;;5.60;5.00;;;15.00;1.00;;;;;;4978427;28;20466;-58
2023/08/06 03:32:42;;;;;;;5.13;4.60;;;14.90;1.00;;;;;;4978342;28;20477;-58
2023/08/06 03:35:09;;;;;;;5.30;4.80;;;14.90;58.80;;;;;;4978405;28;20756;-59
2023/08/06 03:37:38;;;;;;;8.83;4.80;;;15.00;99.90;;;;;;4978171;28;20557;-58
2023/08/06 03:40:06;;;;;;;6.40;4.63;;;14.90;50.10;;;;;;4978345;28;20864;-58
2023/08/06 03:42:33;;;;;;;4.60;4.20;;;14.90;99.90;;;;;;4978361;28;20759;-59
2023/08/06 03:45:00;;;;;;;4.87;4.33;;;14.90;99.90;;;;;;4977745;28;20761;-58
2023/08/06 03:47:27;;;;;;;6.30;4.50;;;14.90;99.90;;;;;;4978319;28;20466;-58
2023/08/06 03:49:54;;;;;;;4.53;4.13;;;14.90;1.00;;;;;;4976369;28;20462;-57
2023/08/06 03:52:21;;;;;;;5.70;4.83;;;14.90;99.90;;;;;;4957992;28;20497;-58
2023/08/06 03:54:50;;;;;;;4.87;4.30;;;14.90;99.90;;;;;;4958994;28;20792;-58
2023/08/06 03:57:17;;;;;;;4.80;4.30;;;14.90;99.90;;;;;;4958887;28;20463;-59
2023/08/06 03:59:44;;;;;;;7.23;4.57;;;14.90;99.90;;;;;;4958702;28;20863;-58
2023/08/06 04:02:11;;;;;;;5.23;4.57;;;14.90;1.00;;;;;;4958755;28;20963;-59
2023/08/06 04:04:38;;;;;;;4.60;3.97;;;14.90;99.90;;;;;;4957648;28;20454;-58
2023/08/06 04:07:06;;;;;;;4.83;3.87;;;14.90;99.90;;;;;;4958881;28;20437;-58
2023/08/06 04:09:33;;;;;;;4.57;4.17;;;14.90;99.90;;;;;;4960645;28;20469;-58
2023/08/06 04:12:02;;;;;;;4.73;4.00;;;14.90;1.00;;;;;;4960775;28;20463;-58
2023/08/06 04:14:29;;;;;;;7.77;5.23;;;14.80;99.90;;;;;;4960824;28;21001;-58
2023/08/06 04:16:57;;;;;;;6.57;4.67;;;14.90;1.00;;;;;;4960729;28;20470;-59
2023/08/06 04:19:24;;;;;;;6.43;4.60;;;14.80;99.90;;;;;;4961203;28;20473;-57
2023/08/06 04:21:51;;;;;;;6.10;4.30;;;14.80;99.90;;;;;;4961868;28;20473;-58
2023/08/06 04:24:18;;;;;;;5.17;4.67;;;14.80;1.00;;;;;;4962499;28;20459;-57
2023/08/06 04:26:46;;;;;;;4.60;4.20;;;14.80;99.90;;;;;;4962500;28;20467;-57
2023/08/06 04:29:14;;;;;;;6.37;4.80;;;14.90;1.00;;;;;;4962651;28;20603;-58
2023/08/06 04:31:41;;;;;;;6.80;4.63;;;14.90;99.90;;;;;;4962195;28;20469;-58
2023/08/06 04:34:09;;;;;;;5.80;4.80;;;14.90;99.90;;;;;;4962007;28;20802;-57
2023/08/06 04:36:36;;;;;;;4.87;4.10;;;14.90;99.90;;;;;;4962144;28;20441;-57
2023/08/06 04:39:03;;;;;;;11.60;4.70;;;14.80;99.90;;;;;;4961656;28;20909;-58
2023/08/06 04:41:30;;;;;;;5.47;4.30;;;14.80;24.40;;;;;;4962036;28;20461;-57
2023/08/06 04:43:58;;;;;;;7.70;5.17;;;14.90;1.00;;;;;;4961948;28;20429;-57
2023/08/06 04:46:26;;;;;;;4.90;4.00;;;14.90;1.00;;;;;;4961960;28;20466;-57
2023/08/06 04:48:53;;;;;;;7.67;4.17;;;14.80;1.00;;;;;;4962045;28;20441;-57
2023/08/06 04:51:20;;;;;;;6.90;4.50;;;14.90;1.00;;;;;;4974671;28;20962;-57
2023/08/06 04:53:48;;;;;;;8.00;4.57;;;14.90;99.90;;;;;;4980468;28;20498;-57
2023/08/06 04:56:15;;;;;;;7.60;4.27;;;15.00;99.90;;;;;;4981142;28;20467;-57
2023/08/06 04:58:42;;;;;;;4.90;4.33;;;15.00;99.90;;;;;;4980962;28;20469;-58
2023/08/06 05:01:09;;;;;;;6.50;4.83;;;15.00;99.90;;;;;;4981058;28;20464;-58
2023/08/06 05:03:38;;;;;;;5.77;4.20;;;15.10;1.00;;;;;;4980480;28;20465;-58
2023/08/06 05:06:05;;;;;;;6.80;4.30;;;15.10;1.00;;;;;;4981034;28;20465;-58
2023/08/06 05:08:33;;;;;;;5.53;4.67;;;15.20;1.00;;;;;;4981134;28;20556;-57
2023/08/06 05:11:01;;;;;;;4.73;3.80;;;15.20;1.00;;;;;;4980805;28;20447;-58
2023/08/06 05:13:28;;;;;;;4.83;4.27;;;15.20;99.90;;;;;;4980811;28;20480;-58
2023/08/06 05:15:55;;;;;;;4.80;4.30;;;15.20;1.00;;;;;;4980737;28;20767;-57
2023/08/06 05:18:23;;;;;;;6.17;3.90;;;15.20;1.00;;;;;;4979245;28;20819;-58
2023/08/06 05:20:51;;;;;;;4.10;3.67;;;15.30;1.00;;;;;;4980555;28;20501;-57
2023/08/06 05:23:18;;;;;;;5.67;4.03;;;15.40;1.00;;;;;;4980584;28;20462;-57
2023/08/06 05:25:45;;;;;;;6.80;4.10;;;15.50;1.00;;;;;;4980121;28;20466;-57
2023/08/06 05:28:12;;;;;;;5.90;4.17;;;15.60;99.90;;;;;;4980422;28;20458;-58
2023/08/06 05:30:41;;;;;;;6.27;4.07;;;15.60;1.00;;;;;;4980005;28;20470;-57
2023/08/06 05:33:08;;;;;;;7.23;3.87;;;15.70;99.90;;;;;;4980246;28;20519;-54
2023/08/06 05:35:35;;;;;;;6.23;4.33;;;15.70;36.00;;;;;;4980280;28;20472;-56
2023/08/06 05:38:04;;;;;;;4.50;4.10;;;15.70;1.00;;;;;;4979966;28;20468;-57
2023/08/06 05:40:34;;;;;;;5.30;3.50;;;15.80;1.00;;;;;;4979725;28;20472;-57
2023/08/06 05:43:01;;;;;;;4.90;3.40;;;15.80;1.00;;;;;;4980303;28;20560;-58
2023/08/06 05:45:28;;;;;;;7.80;4.17;;;15.80;1.00;;;;;;4979900;28;20517;-58
2023/08/06 05:47:57;;;;;;;5.10;3.80;;;15.80;1.00;;;;;;4979999;28;20466;-57
2023/08/06 05:50:25;;;;;;;4.70;3.77;;;15.80;1.00;;;;;;4974166;28;20935;-57
2023/08/06 05:52:52;;;;;;;6.30;3.70;;;15.80;1.00;;;;;;4960940;28;20516;-57
2023/08/06 05:55:21;;;;;;;4.50;3.47;;;15.80;1.00;;;;;;4961099;28;20498;-57
2023/08/06 05:57:48;;;;;;;5.40;3.80;;;15.80;1.00;;;;;;4960676;28;20759;-57
2023/08/06 06:00:16;;;;;;;5.97;3.60;;;15.80;1.00;;;;;;4960449;28;20473;-57
2023/08/06 06:02:43;;;;;;;4.43;3.30;;;15.80;1.00;;;;;;4960673;28;20537;-58
2023/08/06 06:05:10;;;;;;;5.43;3.07;;;15.90;1.00;;;;;;4960688;28;20470;-58
2023/08/06 06:07:37;;;;;;;4.40;3.23;;;15.80;99.90;;;;;;4960637;28;20746;-57
2023/08/06 06:10:05;;;;;;;5.20;3.40;;;15.80;99.90;;;;;;4960405;28;21291;-68
2023/08/06 06:12:34;;;;;;;4.57;3.40;;;15.90;99.90;;;;;;4960639;28;20458;-67
2023/08/06 06:15:01;;;;;;;4.97;3.27;;;15.90;99.90;;;;;;4960368;28;20505;-68
2023/08/06 06:17:29;;;;;;;4.47;3.40;;;15.90;99.90;;;;;;4959864;28;20462;-68
2023/08/06 06:19:56;;;;;;;3.80;2.87;;;16.00;1.00;;;;;;4959922;28;20566;-68
2023/08/06 06:22:23;;;;;;;4.80;2.90;;;16.00;1.00;;;;;;4960232;28;20472;-68
2023/08/06 06:24:50;;;;;;;3.50;3.10;;;16.10;99.90;;;;;;4960338;28;20469;-68
2023/08/06 06:27:17;;;;;;;3.40;2.90;;;16.20;99.90;;;;;;4959436;28;20852;-67
2023/08/06 06:29:46;;;;;;;4.97;3.40;;;16.20;99.90;;;;;;4958683;28;20462;-67
2023/08/06 06:32:13;;;;;;;5.60;3.20;;;16.30;99.90;;;;;;4959751;28;20448;-67
2023/08/06 06:34:40;;;;;;;5.17;3.37;;;16.40;99.90;;;;;;4960396;28;20828;-69
2023/08/06 06:37:07;;;;;;;8.97;3.10;;;16.40;99.90;;;;;;4960164;28;20567;-68
2023/08/06 06:39:34;;;;;;;4.20;2.73;;;16.50;99.90;;;;;;4959942;28;20488;-68
2023/08/06 06:42:02;;;;;;;4.23;3.10;;;16.60;99.90;;;;;;4958699;28;20814;-67
2023/08/06 06:44:29;;;;;;;3.60;2.70;;;16.80;99.90;;;;;;4959596;28;20459;-68
2023/08/06 06:46:57;;;;;;;3.30;2.90;;;16.90;99.90;;;;;;4959936;28;20872;-69
2023/08/06 06:49:24;;;;;;;5.63;3.20;;;17.00;94.00;;;;;;4959846;28;20465;-68
2023/08/06 06:51:52;;;;;;;4.20;2.83;;;17.20;36.40;;;;;;4975400;28;20490;-66
2023/08/06 06:54:19;;;;;;;3.37;2.77;;;17.40;1.00;;;;;;4977439;28;20552;-67
2023/08/06 06:56:46;;;;;;;3.97;2.77;;;17.40;1.00;;;;;;4965832;28;20490;-67
2023/08/06 06:59:13;;;;;;;3.57;2.30;;;17.40;1.00;;;;;;4957402;29;20462;-67
2023/08/06 07:01:43;;;;;;;4.50;2.90;;;17.50;1.00;;;;;;4956467;29;20569;-67
2023/08/06 07:04:12;;;;;;;3.93;2.60;;;17.50;1.00;;;;;;4956272;29;20463;-65
2023/08/06 07:06:39;;;;;;;2.83;2.40;;;17.50;1.00;;;;;;4956851;29;20892;-67
2023/08/06 07:09:07;;;;;;;3.10;2.80;;;17.60;1.00;;;;;;4957673;28;20462;-66
2023/08/06 07:11:34;;;;;;;4.83;3.30;;;18.10;1.00;;;;;;4957865;28;20490;-66
2023/08/06 07:14:01;;;;;;;3.20;2.20;;;18.60;1.00;;;;;;4957507;28;20501;-66
2023/08/06 07:16:29;;;;;;;3.00;2.30;;;19.10;1.00;;;;;;4958692;28;20905;-66
2023/08/06 07:18:56;;;;;;;2.77;2.20;;;19.20;1.00;;;;;;4959513;28;20557;-67
2023/08/06 07:21:25;;;;;;;2.57;2.27;;;19.30;1.00;;;;;;4959636;29;20467;-66
2023/08/06 07:23:52;;;;;;;3.00;2.40;;;19.10;1.00;;;;;;4960018;29;20459;-66
2023/08/06 07:26:19;;;;;;;2.83;1.70;;;19.50;1.00;;;;;;4960515;29;20459;-66
2023/08/06 07:28:46;;;;;;;3.27;1.90;;;20.00;1.00;;;;;;4959339;29;20472;-66
2023/08/06 07:31:13;;;;;;;3.80;1.90;;;20.10;1.00;;;;;;4960067;29;20501;-66
2023/08/06 07:33:41;;;;;;;2.53;1.87;;;20.00;1.00;;;;;;4959106;29;20899;-66
2023/08/06 07:36:12;;;;;;;2.17;1.83;;;19.80;1.00;;;;;;4959182;29;20506;-66
2023/08/06 07:38:41;;;;;;;3.23;1.90;;;19.50;1.00;;;;;;4959114;29;20505;-67
2023/08/06 07:41:08;;;;;;;3.50;1.77;;;19.40;1.00;;;;;;4958526;29;20467;-66
2023/08/06 07:43:36;;;;;;;1.90;1.40;;;19.30;1.00;;;;;;4958895;29;20462;-66
2023/08/06 07:46:03;;;;;;;2.20;2.00;;;19.20;1.00;;;;;;4959146;29;20434;-66
2023/08/06 07:48:31;;;;;;;2.67;1.63;;;19.20;1.00;;;;;;4959365;29;20466;-66
2023/08/06 07:50:59;;;;;;;2.13;1.70;;;19.30;1.00;;;;;;4968894;28;20458;-66
2023/08/06 07:53:29;;;;;;;3.80;2.07;;;19.40;1.00;;;;;;4978592;28;20508;-66
2023/08/06 07:55:59;;;;;;;2.17;1.97;;;19.60;1.00;;;;;;4978387;28;20502;-66
2023/08/06 07:58:26;;;;;;;2.30;1.60;;;19.60;1.00;;;;;;4978173;28;20911;-66
2023/08/06 08:00:53;;;;;;;2.07;1.60;;;19.60;1.00;;;;;;4978317;28;20568;-66
2023/08/06 08:03:21;;;;;;;2.10;1.90;;;19.70;1.00;;;;;;4978206;28;20560;-66
2023/08/06 08:05:48;;;;;;;2.00;1.60;;;19.70;1.00;;;;;;4978285;28;20750;-67
2023/08/06 08:08:15;;;;;;;1.87;1.37;;;19.60;1.00;;;;;;4978250;28;20552;-66
2023/08/06 08:10:43;;;;;;;1.93;1.50;;;19.60;1.00;;;;;;4978513;28;20440;-67
2023/08/06 08:13:12;;;;;;;2.17;1.90;;;19.70;1.00;;;;;;4978408;28;20902;-67
2023/08/06 08:15:39;;;;;;;2.13;1.60;;;19.70;1.00;;;;;;4978095;28;20580;-67
2023/08/06 08:18:07;;;;;;;2.40;2.20;;;19.80;1.00;;;;;;4977775;28;20465;-67
2023/08/06 08:20:35;;;;;;;2.13;1.50;;;19.80;1.00;;;;;;4978084;28;20468;-67
2023/08/06 08:23:03;;;;;;;1.90;1.40;;;19.90;1.00;;;;;;4978101;28;20501;-67
2023/08/06 08:25:31;;;;;;;1.77;1.53;;;20.00;1.00;;;;;;4976975;28;20486;-67
2023/08/06 08:27:59;;;;;;;1.97;1.40;;;20.20;1.00;;;;;;4977883;28;20525;-67
2023/08/06 08:30:28;;;;;;;2.03;1.30;;;20.20;99.90;;;;;;4978080;28;20505;-67
2023/08/06 08:32:55;;;;;;;2.70;1.23;;;20.00;99.90;;;;;;4978021;28;20524;-67
2023/08/06 08:35:22;;;;;;;2.30;2.00;;;19.80;99.90;;;;;;4977897;28;20468;-68
2023/08/06 08:37:50;;;;;;;2.20;1.80;;;19.30;1.00;;;;;;4977780;28;20461;-67
2023/08/06 08:40:18;;;;;;;2.10;1.70;;;19.10;1.00;;;;;;4978209;28;20560;-67
2023/08/06 08:42:45;;;;;;;2.93;1.80;;;18.70;1.00;;;;;;4977922;28;20561;-66
2023/08/06 08:45:15;;;;;;;3.40;2.00;;;18.40;1.00;;;;;;4978067;28;20460;-66
2023/08/06 08:47:44;;;;;;;2.33;1.53;;;18.40;1.00;;;;;;4977630;28;20548;-66
2023/08/06 08:50:13;;;;;;;2.47;1.90;;;18.20;1.00;;;;;;4973584;28;20526;-66
2023/08/06 08:52:41;;;;;;;2.20;1.83;;;18.20;1.00;;;;;;4959209;28;20510;-66
2023/08/06 08:55:09;;;;;;;2.87;1.80;;;18.30;1.00;;;;;;4961752;28;20561;-66
2023/08/06 08:57:37;;;;;;;2.57;1.60;;;18.20;1.00;;;;;;4961289;28;20462;-66
2023/08/06 09:00:05;;;;;;;2.50;1.90;;;18.20;1.00;;;;;;4961581;28;20437;-66
2023/08/06 09:02:34;;;;;;;2.40;2.00;;;18.30;1.00;;;;;;4962063;28;20463;-66
2023/08/06 09:05:05;;;;;;;2.93;2.30;;;18.50;1.00;;;;;;4962230;28;20557;-66
2023/08/06 09:07:40;;;;;;;2.00;1.57;;;18.40;1.00;;;;;;4970574;28;20498;-64
2023/08/06 09:10:11;;;;;;;2.43;1.90;;;18.60;1.00;;;;;;4974700;28;20472;-64
2023/08/06 09:12:39;;;;;;;2.50;1.90;;;18.70;1.00;;;;;;4969029;28;20780;-64
2023/08/06 09:15:07;;;;;;;2.50;2.30;;;18.20;1.00;;;;;;4967040;28;21019;-63
2023/08/06 09:17:34;;;;;;;2.60;2.20;;;18.20;1.00;;;;;;4969056;28;20888;-63
2023/08/06 09:20:15;;;;;;;3.03;2.00;;;18.30;1.00;;;;;;4969152;28;20469;-63
2023/08/06 09:22:44;;;;;;;3.43;2.43;;;18.30;1.00;;;;;;4968695;28;20573;-63
2023/08/06 09:25:13;;;;;;;2.30;1.90;;;18.30;1.00;;;;;;4965245;28;20834;-63
2023/08/06 09:27:41;;;;;;;2.57;2.00;;;18.00;1.00;;;;;;4966372;28;20467;-63
2023/08/06 09:30:09;;;;;;;3.20;2.17;;;18.00;1.00;;;;;;4968338;28;20545;-63
2023/08/06 09:32:51;;;;;;;2.80;2.20;;;18.20;1.00;;;;;;4969922;28;20466;-63
2023/08/06 09:35:21;;;;;;;2.77;2.30;;;18.50;1.00;;;;;;4967175;28;20497;-64
2023/08/06 09:37:48;;;;;;;3.10;2.57;;;18.80;1.00;;;;;;4965478;28;20788;-63
2023/08/06 09:40:31;;;;;;;3.07;2.40;;;19.20;99.90;;;;;;4965050;28;20479;-63
2023/08/06 09:43:00;;;;;;;2.87;1.90;;;19.30;99.90;;;;;;4962446;28;20480;-63
2023/08/06 09:45:32;;;;;;;3.20;2.10;;;18.90;99.90;;;;;;4962215;28;20471;-63
2023/08/06 09:48:00;;;;;;;2.83;1.80;;;18.90;99.90;;;;;;4962099;28;20438;-63
2023/08/06 09:50:32;;;;;;;2.73;2.53;;;19.00;99.90;;;;;;4962417;29;20490;-63
2023/08/06 09:53:00;;;;;;;2.87;1.83;;;19.10;99.90;;;;;;4963008;29;20490;-63
2023/08/06 09:55:27;;;;;;;4.50;2.50;;;19.20;1.00;;;;;;4962504;28;20516;-63
2023/08/06 09:57:56;;;;;;;4.20;2.17;;;19.20;99.90;;;;;;4971823;28;20469;-63
2023/08/06 10:00:24;;;;;;;2.40;2.07;;;19.30;99.90;;;;;;4978794;28;20448;-63
2023/08/06 10:02:55;;;;;;;2.90;2.53;;;19.20;99.90;;;;;;4982292;28;20441;-63
2023/08/06 10:05:23;;;;;;;5.63;2.57;;;19.40;99.90;;;;;;4980555;28;20462;-63
2023/08/06 10:07:53;;;;;;;2.93;1.90;;;19.30;99.90;;;;;;4980867;28;20517;-63
2023/08/06 10:10:20;;;;;;;4.10;2.13;;;19.50;99.90;;;;;;4979993;28;20508;-63
2023/08/06 10:12:51;;;;;;;2.53;2.13;;;19.30;99.90;;;;;;4981066;28;20437;-63
2023/08/06 10:15:25;;;;;;;2.27;2.07;;;19.70;99.90;;;;;;4981368;28;20593;-63
2023/08/06 10:17:55;;;;;;;3.07;1.97;;;20.00;99.90;;;;;;4981273;28;20461;-63
2023/08/06 10:20:23;;;;;;;5.93;2.73;;;20.10;99.90;;;;;;4980704;28;20474;-63
2023/08/06 10:23:03;;;;;;;2.77;1.80;;;20.30;99.90;;;;;;4980616;28;20468;-63
2023/08/06 10:25:33;;;;;;;6.10;3.03;;;20.20;99.90;;;;;;4980607;28;20802;-63
2023/08/06 10:28:01;;;;;;;3.80;2.60;;;20.30;99.90;;;;;;4980770;28;20513;-62
2023/08/06 10:30:31;;;;;;;3.40;2.70;;;20.00;99.90;;;;;;4981202;28;20761;-63
2023/08/06 10:33:01;;;;;;;2.80;2.27;;;20.30;99.90;;;;;;4980252;28;20462;-63
2023/08/06 10:35:38;;;;;;;3.33;2.80;;;19.90;99.90;;;;;;4980206;28;20476;-63
2023/08/06 10:38:09;;;;;;;7.00;3.00;;;19.70;99.90;;;;;;4979215;28;20493;-66
2023/08/06 10:40:41;;;;;;;11.10;6.30;;;19.20;1.00;;;;;;4980251;28;20451;-70
2023/08/06 10:43:25;;;;;;;12.80;7.33;;;19.00;1.00;;;;;;4978778;28;20550;-71
2023/08/06 10:45:53;;;;;;;7.70;6.90;;;18.40;1.00;;;;;;4979390;28;20461;-67
2023/08/06 10:48:31;;;;;;;7.37;6.53;;;18.10;1.00;;;;;;4977881;28;20520;-68
2023/08/06 10:51:00;;;;;;;7.80;6.83;;;17.70;1.00;;;;;;4969285;28;20469;-68
2023/08/06 10:53:30;;;;;;;7.57;6.83;;;17.60;48.90;;;;;;4960372;29;20459;-68
2023/08/06 10:55:59;;;;;;;8.07;7.27;;;17.60;82.70;;;;;;4958050;28;20648;-69
2023/08/06 10:58:26;;;;;;;8.70;7.90;;;17.70;37.40;;;;;;4970537;28;20556;-68
2023/08/06 11:00:53;;;;;;;10.83;6.70;;;17.60;4.80;;;;;;4976507;28;20842;-67
2023/08/06 11:03:21;;;;;;;10.50;6.50;;;17.70;23.20;;;;;;4977194;28;20474;-68
2023/08/06 11:05:55;;;;;;;8.10;7.03;;;17.50;1.00;;;;;;4978068;28;20818;-67
2023/08/06 11:08:26;;;;;;;6.93;6.27;;;17.50;1.00;;;;;;4978275;28;20510;-68
2023/08/06 11:10:55;;;;;;;8.20;6.23;;;17.50;40.60;;;;;;4977590;28;20476;-69
2023/08/06 11:13:24;;;;;;;6.50;5.80;;;17.40;99.90;;;;;;4978060;28;20462;-67
2023/08/06 11:15:53;;;;;;;11.20;9.33;;;17.20;1.00;;;;;;4977033;28;20465;-68
2023/08/06 11:18:21;;;;;;;11.13;10.07;;;17.30;69.20;;;;;;4978418;28;20466;-68
2023/08/06 11:20:48;;;;;;;4.93;4.43;;;17.30;14.70;;;;;;4978640;28;20818;-68
2023/08/06 11:23:16;;;;;;;3.70;2.83;;;17.10;2.80;;;;;;4979082;28;20493;-67
2023/08/06 11:25:46;;;;;;;3.80;3.50;;;16.90;99.90;;;;;;4978751;28;20457;-65
2023/08/06 11:28:15;;;;;;;3.30;2.97;;;16.70;99.90;;;;;;4977241;28;20483;-68
2023/08/06 11:30:42;;;;;;;4.87;4.47;;;16.40;99.90;;;;;;4977715;28;20465;-68
2023/08/06 11:33:10;;;;;;;3.87;3.47;;;16.20;1.00;;;;;;4978884;28;20488;-67
2023/08/06 11:35:38;;;;;;;5.80;2.90;;;16.00;1.00;;;;;;4978569;28;20552;-66
2023/08/06 11:38:06;;;;;;;3.23;2.93;;;15.80;82.40;;;;;;4977344;28;20451;-68
2023/08/06 11:40:34;;;;;;;3.33;3.03;;;15.90;1.00;;;;;;4977257;28;20554;-67
2023/08/06 11:43:02;;;;;;;4.20;3.60;;;16.00;1.00;;;;;;4977686;28;20470;-67
2023/08/06 11:45:31;;;;;;;4.03;3.20;;;15.90;93.30;;;;;;4977492;28;20635;-68
2023/08/06 11:47:59;;;;;;;3.23;2.93;;;15.90;99.90;;;;;;4977796;28;20563;-67
2023/08/06 11:50:28;;;;;;;2.40;2.20;;;15.90;99.90;;;;;;4972868;28;20459;-67
2023/08/06 11:52:58;;;;;;;3.53;2.20;;;15.80;56.90;;;;;;4959227;29;20546;-67
2023/08/06 11:55:26;;;;;;;3.00;2.70;;;15.60;1.00;;;;;;4959312;29;20501;-69
2023/08/06 11:57:53;;;;;;;2.70;2.23;;;15.70;99.90;;;;;;4964810;28;20549;-64
2023/08/06 12:00:22;;;;;;;2.97;2.67;;;15.60;99.90;;;;;;4960184;28;20477;-67
2023/08/06 12:02:52;;;;;;;2.30;1.80;;;15.60;99.90;;;;;;4959566;29;20862;-68
2023/08/06 12:05:23;;;;;;;2.33;1.90;;;15.70;1.00;;;;;;4960367;29;20507;-68
2023/08/06 12:07:52;;;;;;;4.40;2.30;;;15.60;90.70;;;;;;4958851;28;20473;-68
2023/08/06 12:10:20;;;;;;;2.37;2.17;;;15.60;1.00;;;;;;4958421;29;20473;-67
2023/08/06 12:12:49;;;;;;;2.77;2.47;;;15.60;99.90;;;;;;4958743;28;20501;-67
2023/08/06 12:15:17;;;;;;;2.80;2.37;;;15.40;99.90;;;;;;4958626;29;20467;-67
2023/08/06 12:17:45;;;;;;;3.13;2.63;;;15.50;99.90;;;;;;4958617;28;20541;-67
2023/08/06 12:20:14;;;;;;;3.50;2.30;;;15.40;99.90;;;;;;4957802;29;20458;-67
2023/08/06 12:22:41;;;;;;;3.00;2.67;;;15.30;99.90;;;;;;4957524;28;20462;-65
2023/08/06 12:25:12;;;;;;;2.97;2.67;;;15.30;1.00;;;;;;4957901;28;20506;-69
2023/08/06 12:27:40;;;;;;;2.80;2.50;;;15.30;99.90;;;;;;4977778;28;20500;-68
2023/08/06 12:30:08;;;;;;;3.23;2.17;;;15.10;1.00;;;;;;4980775;28;20461;-66
2023/08/06 12:32:36;;;;;;;2.30;1.40;;;15.10;99.90;;;;;;4981737;28;20476;-67
2023/08/06 12:35:04;;;;;;;2.60;1.90;;;15.00;99.90;;;;;;4980951;28;20466;-65
2023/08/06 12:37:33;;;;;;;3.30;1.80;;;14.80;1.00;;;;;;4980124;28;20540;-69
2023/08/06 12:40:00;;;;;;;2.97;1.60;;;14.70;99.90;;;;;;4980735;28;20465;-68
2023/08/06 12:42:28;;;;;;;2.40;1.60;;;14.60;95.90;;;;;;4980744;28;20754;-70
2023/08/06 12:44:55;;;;;;;2.77;1.70;;;14.60;99.90;;;;;;4980921;28;20552;-67
2023/08/06 12:47:24;;;;;;;2.60;1.90;;;14.30;99.90;;;;;;4980583;28;20531;-65
2023/08/06 12:49:52;;;;;;;2.23;1.37;;;14.40;1.00;;;;;;4978425;28;20466;-68
2023/08/06 12:52:20;;;;;;;2.53;1.57;;;14.40;1.00;;;;;;4960210;28;20517;-68
2023/08/06 12:54:49;;;;;;;2.20;1.50;;;14.30;1.00;;;;;;4961511;29;20808;-70
2023/08/06 12:57:17;;;;;;;2.20;1.40;;;14.30;99.90;;;;;;4964590;29;20582;-66